Otagawa — JD3046 — position and weather

sailwx.info

Track history (hours):
 
Tides and Currents Weather Stations Pressure Air Temp Water Temp Dewpoint Dewpoint Depression Visibility Wind Speed Wind Dir Waves Ship Positions

Otagawa

Last reported at 2017-Aug-15 20:51 UTC. Time now 2017-Aug-20 18:59 UTC.
Position N 34°57' E 139°44'.

Length 70 m; draft 4 m.

Type: Ship. MMSI: 431001328.

Date/timePositionNaut miles runAvg speedWind from/ knotsBaromVisibWave heightAir tempDewpointWater temp
2017-Aug-15 20:51N 34°57' E 139°44'410.7
2017-Aug-15 20:30N 35°01' E 139°44'510.7
2017-Aug-15 20:00N 35°06' E 139°45'510.8
2017-Aug-15 19:30N 35°12' E 139°46'511.0
2017-Aug-15 19:00N 35°17' E 139°45'510.4
2017-Aug-15 18:30N 35°21' E 139°42'3 5.5
2017-Aug-15 18:01N 35°24' E 139°41'0 0.0
2017-Aug-15 17:30N 35°24' E 139°41'0 0.0
2017-Aug-15 17:01N 35°24' E 139°41'0 0.0
2017-Aug-15 16:30N 35°24' E 139°41'0 0.0
2017-Aug-15 16:01N 35°24' E 139°41'0 0.0
2017-Aug-15 15:30N 35°24' E 139°41'0 0.0
2017-Aug-15 15:01N 35°24' E 139°41'0 0.0
2017-Aug-15 14:31N 35°24' E 139°41'0 0.0
2017-Aug-15 14:00N 35°24' E 139°41'0 0.0
2017-Aug-15 13:30N 35°24' E 139°41'0 0.0
2017-Aug-15 13:01N 35°24' E 139°41'0 0.0
2017-Aug-15 12:30N 35°24' E 139°41'0 0.0
2017-Aug-15 12:01N 35°24' E 139°41'0 0.0
2017-Aug-15 11:31N 35°24' E 139°41'0 0.0
2017-Aug-15 11:00N 35°24' E 139°41'1 2.2
2017-Aug-15 10:30N 35°23' E 139°40'0 0.1
2017-Aug-15 10:00N 35°23' E 139°40'2 3.9
2017-Aug-15 09:31N 35°24' E 139°42'3 6.5
2017-Aug-15 09:00N 35°28' E 139°42'0 0.5
2017-Aug-15 08:31N 35°28' E 139°42'0 0.0
2017-Aug-15 08:00N 35°28' E 139°42'0 0.0
2017-Aug-15 07:30N 35°28' E 139°42'0 0.0
2017-Aug-15 07:01N 35°28' E 139°42'0 0.0
2017-Aug-15 06:30N 35°28' E 139°42'0 0.0
2017-Aug-15 06:00N 35°28' E 139°42'0 0.0
2017-Aug-15 05:31N 35°28' E 139°42'0 0.0
2017-Aug-15 05:00N 35°28' E 139°42'0 0.0
2017-Aug-15 04:30N 35°28' E 139°42'0 0.0
2017-Aug-15 04:00N 35°28' E 139°42'0 0.0
2017-Aug-15 03:30N 35°28' E 139°42'0 0.0
2017-Aug-15 03:01N 35°28' E 139°42'0 0.0
2017-Aug-15 02:30N 35°28' E 139°42'1 1.4
2017-Aug-15 02:00N 35°27' E 139°43'5 9.5
2017-Aug-15 01:31N 35°23' E 139°46'510.3
2017-Aug-15 01:00N 35°18' E 139°44'510.4
2017-Aug-15 00:30N 35°14' E 139°47'510.7
2017-Aug-15 00:00N 35°08' E 139°46'611.1
2017-Aug-14 23:30N 35°03' E 139°45'510.9
2017-Aug-14 23:00N 34°57' E 139°44'510.8
2017-Aug-14 22:30N 34°53' E 139°49'  
2017-Aug-09 03:35N 34°57' E 139°44'1 9.4
2017-Aug-09 03:28N 34°58' E 139°44'510.1
2017-Aug-09 03:00N 35°03' E 139°44'510.2
2017-Aug-09 02:30N 35°08' E 139°45'510.3
2017-Aug-09 02:00N 35°13' E 139°46'510.9
2017-Aug-09 01:30N 35°18' E 139°44'510.0
2017-Aug-09 01:00N 35°22' E 139°41'0 0.7
2017-Aug-09 00:30N 35°22' E 139°40'0 0.1
2017-Aug-09 00:00N 35°22' E 139°40'0 0.0
2017-Aug-08 23:30N 35°22' E 139°40'0 0.0
2017-Aug-08 23:00N 35°22' E 139°40'0 0.0
2017-Aug-08 22:30N 35°22' E 139°40'0 0.0
2017-Aug-08 22:00N 35°22' E 139°40'0 0.1
2017-Aug-08 21:30N 35°22' E 139°40'0 0.0
2017-Aug-08 21:00N 35°22' E 139°40'0 0.1
2017-Aug-08 20:30N 35°22' E 139°40'0 0.0
2017-Aug-08 20:00N 35°22' E 139°40'0 0.0
2017-Aug-08 19:30N 35°22' E 139°40'0 0.0
2017-Aug-08 19:00N 35°22' E 139°40'0 0.1
2017-Aug-08 18:30N 35°22' E 139°40'2 3.6
2017-Aug-08 18:00N 35°24' E 139°41'0 0.0
2017-Aug-08 17:30N 35°24' E 139°41'0 0.0
2017-Aug-08 17:00N 35°24' E 139°41'0 0.0
2017-Aug-08 16:30N 35°24' E 139°41'0 0.0
2017-Aug-08 16:00N 35°24' E 139°41'0 0.0
2017-Aug-08 15:30N 35°24' E 139°41'0 0.0
2017-Aug-08 15:00N 35°24' E 139°41'0 0.0
2017-Aug-08 14:30N 35°24' E 139°41'0 0.0
2017-Aug-08 14:00N 35°24' E 139°41'0 0.0
2017-Aug-08 13:30N 35°24' E 139°41'0 0.0
2017-Aug-08 13:00N 35°24' E 139°41'0 0.0
2017-Aug-08 12:30N 35°24' E 139°41'0 0.0
2017-Aug-08 12:00N 35°24' E 139°41'0 0.0
2017-Aug-08 11:30N 35°24' E 139°41'0 0.0
2017-Aug-08 11:00N 35°24' E 139°41'0 0.0
2017-Aug-08 10:30N 35°24' E 139°41'1 1.2
2017-Aug-08 10:00N 35°24' E 139°41'1 1.3
2017-Aug-08 09:30N 35°23' E 139°41'0 0.0
2017-Aug-08 09:01N 35°23' E 139°41'0 0.0
2017-Aug-08 08:30N 35°23' E 139°41'0 0.0
2017-Aug-08 08:00N 35°23' E 139°41'0 0.0
2017-Aug-08 07:30N 35°23' E 139°41'0 0.0
2017-Aug-08 07:00N 35°23' E 139°41'0 0.0
2017-Aug-08 06:30N 35°23' E 139°41'0 0.0
2017-Aug-08 06:00N 35°23' E 139°41'0 0.0
2017-Aug-08 05:30N 35°23' E 139°41'0 0.0
2017-Aug-08 05:00N 35°23' E 139°41'0 0.0
2017-Aug-08 04:30N 35°23' E 139°41'0 0.0
2017-Aug-08 04:00N 35°23' E 139°41'2 3.9
2017-Aug-08 03:30N 35°24' E 139°42'3 6.3
2017-Aug-08 03:00N 35°28' E 139°42'0 0.0
2017-Aug-08 02:30N 35°28' E 139°42'0 0.0
2017-Aug-08 02:00N 35°28' E 139°42'0 0.0
2017-Aug-08 01:30N 35°28' E 139°42'0 0.0
2017-Aug-08 01:00N 35°28' E 139°42'0 0.0
2017-Aug-08 00:30N 35°28' E 139°42'0 0.0
2017-Aug-08 00:00N 35°28' E 139°42'0 0.0
2017-Aug-07 23:30N 35°28' E 139°42'0 0.0
2017-Aug-07 23:00N 35°28' E 139°42'0 0.0
2017-Aug-07 22:30N 35°28' E 139°42'0 0.0
2017-Aug-07 22:00N 35°28' E 139°42'0 0.0
2017-Aug-07 21:30N 35°28' E 139°42'0 0.0
2017-Aug-07 21:00N 35°28' E 139°42'0 0.0
2017-Aug-07 20:30N 35°28' E 139°42'0 0.0
2017-Aug-07 20:00N 35°28' E 139°42'0 0.0
2017-Aug-07 19:30N 35°28' E 139°42'0 0.0
2017-Aug-07 19:00N 35°28' E 139°42'0 0.0
2017-Aug-07 18:27N 35°28' E 139°42'0 0.0
2017-Aug-07 18:00N 35°28' E 139°42'0 0.0
2017-Aug-07 17:30N 35°28' E 139°42'0 0.0
2017-Aug-07 16:57N 35°28' E 139°42'0 0.0
2017-Aug-07 16:30N 35°28' E 139°42'0 0.0
2017-Aug-07 16:00N 35°28' E 139°42'0 0.0
2017-Aug-07 15:30N 35°28' E 139°42'0 0.0
2017-Aug-07 15:00N 35°28' E 139°42'0 0.0
2017-Aug-07 14:30N 35°28' E 139°42'0 0.0
2017-Aug-07 14:00N 35°28' E 139°42'0 0.0
2017-Aug-07 13:30N 35°28' E 139°42'0 0.0
2017-Aug-07 13:00N 35°28' E 139°42'0 0.0
2017-Aug-07 12:30N 35°28' E 139°42'0 0.0
2017-Aug-07 12:00N 35°28' E 139°42'0 0.0
2017-Aug-07 11:30N 35°28' E 139°42'0 0.0
2017-Aug-07 11:00N 35°28' E 139°42'0 0.0
2017-Aug-07 10:30N 35°28' E 139°42'0 0.0
2017-Aug-07 10:00N 35°28' E 139°42'0 0.0
2017-Aug-07 09:30N 35°28' E 139°42'0 0.0
2017-Aug-07 09:00N 35°28' E 139°42'0 0.0
2017-Aug-07 08:26N 35°28' E 139°42'1 1.7
2017-Aug-07 08:01N 35°28' E 139°43'4 7.1
2017-Aug-07 07:31N 35°24' E 139°42'2 4.1
2017-Aug-07 07:00N 35°22' E 139°40'0 0.2
2017-Aug-07 06:30N 35°22' E 139°40'0 0.0
2017-Aug-07 06:00N 35°22' E 139°40'0 0.0
2017-Aug-07 05:30N 35°22' E 139°40'0 0.0
2017-Aug-07 05:00N 35°22' E 139°40'0 0.0
2017-Aug-07 04:30N 35°22' E 139°40'1 1.5
2017-Aug-07 04:00N 35°22' E 139°41'510.9
2017-Aug-07 03:30N 35°18' E 139°45'510.5
2017-Aug-07 03:00N 35°12' E 139°47'510.5
2017-Aug-07 02:30N 35°07' E 139°46'510.2
2017-Aug-07 02:00N 35°02' E 139°44'5 9.6
2017-Aug-07 01:30N 34°57' E 139°44'  
Track history (hours):
 
Tides and Currents Weather Stations Pressure Air Temp Water Temp Dewpoint Dewpoint Depression Visibility Wind Speed Wind Dir Waves Ship Positions

Otagawa

Last reported at 2017-Aug-15 20:51 UTC. Time now 2017-Aug-20 18:59 UTC.
Position N 34°57' E 139°44'.

Length 70 m; draft 4 m.

Type: Ship. MMSI: 431001328.

Date/timePositionNaut miles runAvg speedWind from/ knotsBaromVisibWave heightAir tempDewpointWater temp
2017-Aug-15 20:51N 34°57' E 139°44'410.7
2017-Aug-15 20:30N 35°01' E 139°44'510.7
2017-Aug-15 20:00N 35°06' E 139°45'510.8
2017-Aug-15 19:30N 35°12' E 139°46'511.0
2017-Aug-15 19:00N 35°17' E 139°45'510.4
2017-Aug-15 18:30N 35°21' E 139°42'3 5.5
2017-Aug-15 18:01N 35°24' E 139°41'0 0.0
2017-Aug-15 17:30N 35°24' E 139°41'0 0.0
2017-Aug-15 17:01N 35°24' E 139°41'0 0.0
2017-Aug-15 16:30N 35°24' E 139°41'0 0.0
2017-Aug-15 16:01N 35°24' E 139°41'0 0.0
2017-Aug-15 15:30N 35°24' E 139°41'0 0.0
2017-Aug-15 15:01N 35°24' E 139°41'0 0.0
2017-Aug-15 14:31N 35°24' E 139°41'0 0.0
2017-Aug-15 14:00N 35°24' E 139°41'0 0.0
2017-Aug-15 13:30N 35°24' E 139°41'0 0.0
2017-Aug-15 13:01N 35°24' E 139°41'0 0.0
2017-Aug-15 12:30N 35°24' E 139°41'0 0.0
2017-Aug-15 12:01N 35°24' E 139°41'0 0.0
2017-Aug-15 11:31N 35°24' E 139°41'0 0.0
2017-Aug-15 11:00N 35°24' E 139°41'1 2.2
2017-Aug-15 10:30N 35°23' E 139°40'0 0.1
2017-Aug-15 10:00N 35°23' E 139°40'2 3.9
2017-Aug-15 09:31N 35°24' E 139°42'3 6.5
2017-Aug-15 09:00N 35°28' E 139°42'0 0.5
2017-Aug-15 08:31N 35°28' E 139°42'0 0.0
2017-Aug-15 08:00N 35°28' E 139°42'0 0.0
2017-Aug-15 07:30N 35°28' E 139°42'0 0.0
2017-Aug-15 07:01N 35°28' E 139°42'0 0.0
2017-Aug-15 06:30N 35°28' E 139°42'0 0.0
2017-Aug-15 06:00N 35°28' E 139°42'0 0.0
2017-Aug-15 05:31N 35°28' E 139°42'0 0.0
2017-Aug-15 05:00N 35°28' E 139°42'0 0.0
2017-Aug-15 04:30N 35°28' E 139°42'0 0.0
2017-Aug-15 04:00N 35°28' E 139°42'0 0.0
2017-Aug-15 03:30N 35°28' E 139°42'0 0.0
2017-Aug-15 03:01N 35°28' E 139°42'0 0.0
2017-Aug-15 02:30N 35°28' E 139°42'1 1.4
2017-Aug-15 02:00N 35°27' E 139°43'5 9.5
2017-Aug-15 01:31N 35°23' E 139°46'510.3
2017-Aug-15 01:00N 35°18' E 139°44'510.4
2017-Aug-15 00:30N 35°14' E 139°47'510.7
2017-Aug-15 00:00N 35°08' E 139°46'611.1
2017-Aug-14 23:30N 35°03' E 139°45'510.9
2017-Aug-14 23:00N 34°57' E 139°44'510.8
2017-Aug-14 22:30N 34°53' E 139°49'  
2017-Aug-09 03:35N 34°57' E 139°44'1 9.4
2017-Aug-09 03:28N 34°58' E 139°44'510.1
2017-Aug-09 03:00N 35°03' E 139°44'510.2
2017-Aug-09 02:30N 35°08' E 139°45'510.3
2017-Aug-09 02:00N 35°13' E 139°46'510.9
2017-Aug-09 01:30N 35°18' E 139°44'510.0
2017-Aug-09 01:00N 35°22' E 139°41'0 0.7
2017-Aug-09 00:30N 35°22' E 139°40'0 0.1
2017-Aug-09 00:00N 35°22' E 139°40'0 0.0
2017-Aug-08 23:30N 35°22' E 139°40'0 0.0
2017-Aug-08 23:00N 35°22' E 139°40'0 0.0
2017-Aug-08 22:30N 35°22' E 139°40'0 0.0
2017-Aug-08 22:00N 35°22' E 139°40'0 0.1
2017-Aug-08 21:30N 35°22' E 139°40'0 0.0
2017-Aug-08 21:00N 35°22' E 139°40'0 0.1
2017-Aug-08 20:30N 35°22' E 139°40'0 0.0
2017-Aug-08 20:00N 35°22' E 139°40'0 0.0
2017-Aug-08 19:30N 35°22' E 139°40'0 0.0
2017-Aug-08 19:00N 35°22' E 139°40'0 0.1
2017-Aug-08 18:30N 35°22' E 139°40'2 3.6
2017-Aug-08 18:00N 35°24' E 139°41'0 0.0
2017-Aug-08 17:30N 35°24' E 139°41'0 0.0
2017-Aug-08 17:00N 35°24' E 139°41'0 0.0
2017-Aug-08 16:30N 35°24' E 139°41'0 0.0
2017-Aug-08 16:00N 35°24' E 139°41'0 0.0
2017-Aug-08 15:30N 35°24' E 139°41'0 0.0
2017-Aug-08 15:00N 35°24' E 139°41'0 0.0
2017-Aug-08 14:30N 35°24' E 139°41'0 0.0
2017-Aug-08 14:00N 35°24' E 139°41'0 0.0
2017-Aug-08 13:30N 35°24' E 139°41'0 0.0
2017-Aug-08 13:00N 35°24' E 139°41'0 0.0
2017-Aug-08 12:30N 35°24' E 139°41'0 0.0
2017-Aug-08 12:00N 35°24' E 139°41'0 0.0
2017-Aug-08 11:30N 35°24' E 139°41'0 0.0
2017-Aug-08 11:00N 35°24' E 139°41'0 0.0
2017-Aug-08 10:30N 35°24' E 139°41'1 1.2
2017-Aug-08 10:00N 35°24' E 139°41'1 1.3
2017-Aug-08 09:30N 35°23' E 139°41'0 0.0
2017-Aug-08 09:01N 35°23' E 139°41'0 0.0
2017-Aug-08 08:30N 35°23' E 139°41'0 0.0
2017-Aug-08 08:00N 35°23' E 139°41'0 0.0
2017-Aug-08 07:30N 35°23' E 139°41'0 0.0
2017-Aug-08 07:00N 35°23' E 139°41'0 0.0
2017-Aug-08 06:30N 35°23' E 139°41'0 0.0
2017-Aug-08 06:00N 35°23' E 139°41'0 0.0
2017-Aug-08 05:30N 35°23' E 139°41'0 0.0
2017-Aug-08 05:00N 35°23' E 139°41'0 0.0
2017-Aug-08 04:30N 35°23' E 139°41'0 0.0
2017-Aug-08 04:00N 35°23' E 139°41'2 3.9
2017-Aug-08 03:30N 35°24' E 139°42'3 6.3
2017-Aug-08 03:00N 35°28' E 139°42'0 0.0
2017-Aug-08 02:30N 35°28' E 139°42'0 0.0
2017-Aug-08 02:00N 35°28' E 139°42'0 0.0
2017-Aug-08 01:30N 35°28' E 139°42'0 0.0
2017-Aug-08 01:00N 35°28' E 139°42'0 0.0
2017-Aug-08 00:30N 35°28' E 139°42'0 0.0
2017-Aug-08 00:00N 35°28' E 139°42'0 0.0
2017-Aug-07 23:30N 35°28' E 139°42'0 0.0
2017-Aug-07 23:00N 35°28' E 139°42'0 0.0
2017-Aug-07 22:30N 35°28' E 139°42'0 0.0
2017-Aug-07 22:00N 35°28' E 139°42'0 0.0
2017-Aug-07 21:30N 35°28' E 139°42'0 0.0
2017-Aug-07 21:00N 35°28' E 139°42'0 0.0
2017-Aug-07 20:30N 35°28' E 139°42'0 0.0
2017-Aug-07 20:00N 35°28' E 139°42'0 0.0
2017-Aug-07 19:30N 35°28' E 139°42'0 0.0
2017-Aug-07 19:00N 35°28' E 139°42'0 0.0
2017-Aug-07 18:27N 35°28' E 139°42'0 0.0
2017-Aug-07 18:00N 35°28' E 139°42'0 0.0
2017-Aug-07 17:30N 35°28' E 139°42'0 0.0
2017-Aug-07 16:57N 35°28' E 139°42'0 0.0
2017-Aug-07 16:30N 35°28' E 139°42'0 0.0
2017-Aug-07 16:00N 35°28' E 139°42'0 0.0
2017-Aug-07 15:30N 35°28' E 139°42'0 0.0
2017-Aug-07 15:00N 35°28' E 139°42'0 0.0
2017-Aug-07 14:30N 35°28' E 139°42'0 0.0
2017-Aug-07 14:00N 35°28' E 139°42'0 0.0
2017-Aug-07 13:30N 35°28' E 139°42'0 0.0
2017-Aug-07 13:00N 35°28' E 139°42'0 0.0
2017-Aug-07 12:30N 35°28' E 139°42'0 0.0
2017-Aug-07 12:00N 35°28' E 139°42'0 0.0
2017-Aug-07 11:30N 35°28' E 139°42'0 0.0
2017-Aug-07 11:00N 35°28' E 139°42'0 0.0
2017-Aug-07 10:30N 35°28' E 139°42'0 0.0
2017-Aug-07 10:00N 35°28' E 139°42'0 0.0
2017-Aug-07 09:30N 35°28' E 139°42'0 0.0
2017-Aug-07 09:00N 35°28' E 139°42'0 0.0
2017-Aug-07 08:26N 35°28' E 139°42'1 1.7
2017-Aug-07 08:01N 35°28' E 139°43'4 7.1
2017-Aug-07 07:31N 35°24' E 139°42'2 4.1
2017-Aug-07 07:00N 35°22' E 139°40'0 0.2
2017-Aug-07 06:30N 35°22' E 139°40'0 0.0
2017-Aug-07 06:00N 35°22' E 139°40'0 0.0
2017-Aug-07 05:30N 35°22' E 139°40'0 0.0
2017-Aug-07 05:00N 35°22' E 139°40'0 0.0
2017-Aug-07 04:30N 35°22' E 139°40'1 1.5
2017-Aug-07 04:00N 35°22' E 139°41'510.9
2017-Aug-07 03:30N 35°18' E 139°45'510.5
2017-Aug-07 03:00N 35°12' E 139°47'510.5
2017-Aug-07 02:30N 35°07' E 139°46'510.2
2017-Aug-07 02:00N 35°02' E 139°44'5 9.6
2017-Aug-07 01:30N 34°57' E 139°44'  

Dump ship's entire track history